createdAt,value
2022-12-20T00:01:36.401Z,88.80
2022-12-20T00:04:06.728Z,88.70
2022-12-20T00:06:35.921Z,88.80
2022-12-20T00:09:06.352Z,88.80
2022-12-20T00:11:34.948Z,88.80
2022-12-20T00:14:04.561Z,88.70
2022-12-20T00:16:32.792Z,88.70
2022-12-20T00:19:03.449Z,88.70
2022-12-20T00:21:33.852Z,88.70
2022-12-20T00:24:02.209Z,88.70
2022-12-20T00:26:32.351Z,88.70
2022-12-20T00:29:01.308Z,88.80
2022-12-20T00:31:31.940Z,88.80
2022-12-20T00:34:01.490Z,88.80
2022-12-20T00:36:32.965Z,88.80
2022-12-20T00:39:01.919Z,88.90
2022-12-20T00:41:32.275Z,88.80
2022-12-20T00:44:00.896Z,88.80
2022-12-20T00:46:31.627Z,88.90
2022-12-20T00:49:00.580Z,88.80
2022-12-20T00:51:31.998Z,88.80
2022-12-20T00:54:00.507Z,88.90
2022-12-20T00:56:30.290Z,88.90
2022-12-20T00:59:00.223Z,88.80
2022-12-20T01:01:32.417Z,88.80
2022-12-20T01:04:01.482Z,88.90
2022-12-20T01:06:30.880Z,88.80
2022-12-20T01:09:16.618Z,88.80
2022-12-20T01:11:44.864Z,88.90
2022-12-20T01:14:15.233Z,88.80
2022-12-20T01:16:46.835Z,88.70
2022-12-20T01:19:18.995Z,88.70
2022-12-20T01:21:47.558Z,88.70
2022-12-20T01:24:17.872Z,88.80
2022-12-20T01:26:47.218Z,88.80
2022-12-20T01:29:16.012Z,88.80
2022-12-20T01:31:45.939Z,88.80
2022-12-20T01:34:14.276Z,88.80
2022-12-20T01:36:42.554Z,88.80
2022-12-20T01:39:14.560Z,88.80
2022-12-20T01:41:45.456Z,88.80
2022-12-20T01:44:51.212Z,88.80
2022-12-20T01:47:21.282Z,88.80
2022-12-20T01:49:52.844Z,88.90
2022-12-20T01:52:23.075Z,88.90
2022-12-20T01:54:55.151Z,88.90
2022-12-20T01:57:28.470Z,88.90
2022-12-20T01:59:57.365Z,88.90
2022-12-20T02:02:28.387Z,88.90
2022-12-20T02:04:56.688Z,88.90
2022-12-20T02:07:27.816Z,88.90
2022-12-20T02:09:59.915Z,88.90
2022-12-20T02:12:31.577Z,88.90
2022-12-20T02:15:31.753Z,88.80
2022-12-20T02:18:12.270Z,88.80
2022-12-20T02:21:18.953Z,88.80
2022-12-20T02:24:21.475Z,88.70
2022-12-20T02:27:06.583Z,88.80
2022-12-20T02:29:38.350Z,88.80
2022-12-20T02:32:14.648Z,88.80
2022-12-20T02:34:43.968Z,88.80
2022-12-20T02:37:12.982Z,88.80
2022-12-20T02:39:43.443Z,88.80
2022-12-20T02:42:13.726Z,89.70
2022-12-20T02:45:04.407Z,88.80
2022-12-20T02:47:38.381Z,88.80
2022-12-20T02:50:08.825Z,89.70
2022-12-20T02:52:38.547Z,88.80
2022-12-20T02:55:07.947Z,88.90
2022-12-20T02:57:46.409Z,88.90
2022-12-20T03:00:17.571Z,89.00
2022-12-20T03:03:06.784Z,89.00
2022-12-20T03:05:39.606Z,88.80
2022-12-20T03:08:08.766Z,89.00
2022-12-20T03:10:37.020Z,89.00
2022-12-20T03:13:05.438Z,89.00
2022-12-20T03:15:35.548Z,89.00
2022-12-20T03:18:13.998Z,89.00
2022-12-20T03:20:42.336Z,88.90
2022-12-20T03:23:10.684Z,88.90
2022-12-20T03:25:39.059Z,88.90
2022-12-20T03:28:07.894Z,88.80
2022-12-20T03:30:36.563Z,88.80
2022-12-20T03:33:04.991Z,88.90
2022-12-20T03:35:34.565Z,88.90
2022-12-20T03:38:02.850Z,89.00
2022-12-20T03:40:31.163Z,89.00
2022-12-20T03:42:59.386Z,89.10
2022-12-20T03:45:28.118Z,89.10
2022-12-20T03:47:56.349Z,89.10
2022-12-20T03:50:27.297Z,89.10
2022-12-20T03:52:57.435Z,89.10
2022-12-20T03:55:27.256Z,89.10
2022-12-20T03:57:56.026Z,89.10
2022-12-20T04:00:35.211Z,89.10
2022-12-20T04:03:32.307Z,89.10
2022-12-20T04:06:00.596Z,89.00
2022-12-20T04:08:30.670Z,89.00
2022-12-20T04:11:16.160Z,89.00
2022-12-20T04:14:13.727Z,89.00
2022-12-20T04:16:42.236Z,89.10
2022-12-20T04:19:12.018Z,89.10
2022-12-20T04:21:47.391Z,89.10
2022-12-20T04:24:18.639Z,89.90
2022-12-20T04:27:01.796Z,89.10
2022-12-20T04:29:30.702Z,89.00
2022-12-20T04:31:59.649Z,89.00
2022-12-20T04:34:28.159Z,88.90
2022-12-20T04:36:56.484Z,89.00
2022-12-20T04:39:36.218Z,89.00
2022-12-20T04:42:18.510Z,89.10
2022-12-20T04:44:47.302Z,89.10
2022-12-20T04:47:18.492Z,89.10
2022-12-20T04:49:47.168Z,89.10
2022-12-20T04:52:33.184Z,89.00
2022-12-20T04:55:03.386Z,89.00
2022-12-20T04:57:33.869Z,89.00
2022-12-20T05:00:02.802Z,89.00
2022-12-20T05:02:31.228Z,89.20
2022-12-20T05:05:05.798Z,89.10
2022-12-20T05:07:39.581Z,89.10
2022-12-20T05:10:11.126Z,89.10
2022-12-20T05:12:41.155Z,89.20
2022-12-20T05:15:14.445Z,89.20
2022-12-20T05:17:44.194Z,89.20
2022-12-20T05:20:14.720Z,89.20
2022-12-20T05:23:02.642Z,89.20
2022-12-20T05:25:52.298Z,89.20
2022-12-20T05:28:20.609Z,89.10
2022-12-20T05:30:49.846Z,89.00
2022-12-20T05:33:18.173Z,89.10
2022-12-20T05:35:46.470Z,89.00
2022-12-20T05:38:16.214Z,89.00
2022-12-20T05:40:48.049Z,88.90
2022-12-20T05:43:18.262Z,89.00
2022-12-20T05:45:48.341Z,89.00
2022-12-20T05:48:20.284Z,88.90
2022-12-20T05:50:48.908Z,88.90
2022-12-20T05:53:39.836Z,88.80
2022-12-20T05:56:10.076Z,88.70
2022-12-20T05:58:40.291Z,88.70
2022-12-20T06:01:11.111Z,88.50
2022-12-20T06:03:41.530Z,88.50
2022-12-20T06:06:15.758Z,88.50
2022-12-20T06:08:48.095Z,88.50
2022-12-20T06:11:33.781Z,88.60
2022-12-20T06:14:06.635Z,88.80
2022-12-20T06:16:37.345Z,88.80
2022-12-20T06:19:06.913Z,88.80
2022-12-20T06:21:36.436Z,88.70
2022-12-20T06:24:05.212Z,88.70
2022-12-20T06:26:36.369Z,88.90
2022-12-20T06:29:09.203Z,89.00
2022-12-20T06:31:52.595Z,88.90
2022-12-20T06:34:21.474Z,88.80
2022-12-20T06:36:50.138Z,88.80
2022-12-20T06:39:22.730Z,88.80
2022-12-20T06:42:11.895Z,88.80
2022-12-20T06:44:41.853Z,88.80
2022-12-20T06:47:10.056Z,88.70
2022-12-20T06:49:39.898Z,88.60
2022-12-20T06:52:15.306Z,88.60
2022-12-20T06:54:52.102Z,88.60
2022-12-20T06:57:23.649Z,88.60
2022-12-20T06:59:53.168Z,88.60
2022-12-20T07:02:21.500Z,88.50
2022-12-20T07:04:49.872Z,88.40
2022-12-20T07:07:18.267Z,88.50
2022-12-20T07:09:46.498Z,88.30
2022-12-20T07:12:15.213Z,88.50
2022-12-20T07:14:44.888Z,88.40
2022-12-20T07:17:13.165Z,88.40
2022-12-20T07:19:45.693Z,88.40
2022-12-20T07:22:17.010Z,88.40
2022-12-20T07:24:45.269Z,88.50
2022-12-20T07:27:13.904Z,88.40
2022-12-20T07:29:42.286Z,88.40
2022-12-20T07:32:14.239Z,88.50
2022-12-20T07:34:42.577Z,88.40
2022-12-20T07:37:11.768Z,88.50
2022-12-20T07:39:42.261Z,88.50
2022-12-20T07:42:10.620Z,88.50
2022-12-20T07:44:50.044Z,88.40
2022-12-20T07:47:19.669Z,88.40
2022-12-20T07:49:49.422Z,88.40
2022-12-20T07:52:20.153Z,89.30
2022-12-20T07:54:51.681Z,88.40
2022-12-20T07:57:23.535Z,88.40
2022-12-20T07:59:55.591Z,88.40
2022-12-20T08:02:30.226Z,88.50
2022-12-20T08:04:59.152Z,88.40
2022-12-20T08:07:31.009Z,88.40
2022-12-20T08:09:59.970Z,88.40
2022-12-20T08:12:31.444Z,88.30
2022-12-20T08:15:00.156Z,88.40
2022-12-20T08:17:29.761Z,88.40
2022-12-20T08:19:58.033Z,88.30
2022-12-20T08:22:26.316Z,89.20
2022-12-20T08:24:54.508Z,88.70
2022-12-20T08:27:22.821Z,89.20
2022-12-20T08:29:51.037Z,88.40
2022-12-20T08:32:19.339Z,88.40
2022-12-20T08:34:49.223Z,88.40
2022-12-20T08:37:18.473Z,88.40
2022-12-20T08:39:46.732Z,88.40
2022-12-20T08:42:15.480Z,88.60
2022-12-20T08:44:44.066Z,88.50
2022-12-20T08:47:12.590Z,88.60
2022-12-20T08:49:47.138Z,88.60
2022-12-20T08:52:17.396Z,88.60
2022-12-20T08:54:45.739Z,88.50
2022-12-20T08:57:14.112Z,88.50
2022-12-20T08:59:42.369Z,88.50
2022-12-20T09:02:10.847Z,88.60
2022-12-20T09:04:39.248Z,88.50
2022-12-20T09:07:07.694Z,88.50
2022-12-20T09:09:37.460Z,88.50
2022-12-20T09:12:07.787Z,88.40
2022-12-20T09:14:36.071Z,88.50
2022-12-20T09:17:04.392Z,88.50
2022-12-20T09:19:32.713Z,88.40
2022-12-20T09:22:01.008Z,88.40
2022-12-20T09:24:29.257Z,88.40
2022-12-20T09:26:58.902Z,88.40
2022-12-20T09:29:32.160Z,88.40
2022-12-20T09:32:03.563Z,88.30
2022-12-20T09:34:31.838Z,88.40
2022-12-20T09:37:00.084Z,88.40
2022-12-20T09:39:28.490Z,88.40
2022-12-20T09:41:58.475Z,88.40
2022-12-20T09:44:31.125Z,88.40
2022-12-20T09:47:08.399Z,88.40
2022-12-20T09:49:45.115Z,88.30
2022-12-20T09:52:26.700Z,88.30
2022-12-20T09:55:02.892Z,88.40
2022-12-20T09:57:43.041Z,88.40
2022-12-20T10:00:15.397Z,88.40
2022-12-20T10:02:58.701Z,88.50
2022-12-20T10:05:41.771Z,88.40
2022-12-20T10:08:22.846Z,88.40
2022-12-20T10:10:57.350Z,88.40
2022-12-20T10:13:39.190Z,88.40
2022-12-20T10:16:25.820Z,88.40
2022-12-20T10:19:03.424Z,88.40
2022-12-20T10:21:41.739Z,88.40
2022-12-20T10:24:14.523Z,88.30
2022-12-20T10:26:43.358Z,88.30
2022-12-20T10:29:13.035Z,89.10
2022-12-20T10:31:41.628Z,89.10
2022-12-20T10:34:10.036Z,88.30
2022-12-20T10:36:38.999Z,88.40
2022-12-20T10:39:09.121Z,88.40
2022-12-20T10:41:51.930Z,88.40
2022-12-20T10:44:26.576Z,88.40
2022-12-20T10:46:57.229Z,88.40
2022-12-20T10:49:33.047Z,88.40
2022-12-20T10:52:03.863Z,88.50
2022-12-20T10:54:35.229Z,88.50
2022-12-20T10:57:14.974Z,88.50
2022-12-20T10:59:49.899Z,88.40
2022-12-20T11:02:34.649Z,88.50
2022-12-20T11:05:23.869Z,88.60
2022-12-20T11:10:47.389Z,88.50
2022-12-20T11:13:25.687Z,88.50
2022-12-20T11:16:01.537Z,88.60
2022-12-20T11:18:41.843Z,88.60
2022-12-20T11:21:27.864Z,88.50
2022-12-20T11:24:04.726Z,88.50
2022-12-20T11:26:45.438Z,88.60
2022-12-20T11:29:37.551Z,88.50
2022-12-20T11:32:17.143Z,88.60
2022-12-20T11:34:53.727Z,88.50
2022-12-20T11:37:24.422Z,88.50
2022-12-20T11:40:17.345Z,88.60
2022-12-20T11:43:00.823Z,88.50
2022-12-20T11:45:37.044Z,88.50
2022-12-20T11:48:20.043Z,88.60
2022-12-20T11:50:59.713Z,88.40
2022-12-20T11:53:35.536Z,88.50
2022-12-20T11:56:08.108Z,88.60
2022-12-20T11:58:48.131Z,88.50
2022-12-20T12:01:21.000Z,88.40
2022-12-20T12:04:00.561Z,88.50
2022-12-20T12:06:32.629Z,88.40
2022-12-20T12:09:13.462Z,88.40
2022-12-20T12:14:45.889Z,88.50
2022-12-20T12:17:22.062Z,88.50
2022-12-20T12:19:55.223Z,88.50
2022-12-20T12:22:31.735Z,88.50
2022-12-20T12:25:05.626Z,88.60
2022-12-20T12:27:35.121Z,88.50
2022-12-20T12:30:03.555Z,88.50
2022-12-20T12:32:38.350Z,88.70
2022-12-20T12:35:37.938Z,88.60
2022-12-20T12:38:22.952Z,88.50
2022-12-20T12:41:16.464Z,88.80
2022-12-20T12:43:51.232Z,88.70
2022-12-20T12:46:26.026Z,88.70
2022-12-20T12:49:00.141Z,88.70
2022-12-20T12:51:34.799Z,88.70
2022-12-20T12:54:20.197Z,88.70
2022-12-20T12:56:49.443Z,88.70
2022-12-20T12:59:25.253Z,88.80
2022-12-20T13:01:56.078Z,88.80
2022-12-20T13:04:28.928Z,88.80
2022-12-20T13:07:01.723Z,88.80
2022-12-20T13:09:43.577Z,88.80
2022-12-20T13:12:51.427Z,88.80
2022-12-20T13:15:48.796Z,88.80
2022-12-20T13:18:37.828Z,88.90
2022-12-20T13:21:38.475Z,89.00
2022-12-20T13:24:56.377Z,89.20
2022-12-20T13:27:40.922Z,89.20
2022-12-20T13:30:28.387Z,89.20
2022-12-20T13:33:20.461Z,89.00
2022-12-20T13:35:57.306Z,89.10
2022-12-20T13:38:51.962Z,89.90
2022-12-20T13:41:41.568Z,89.10
2022-12-20T13:44:36.186Z,89.10
2022-12-20T13:47:15.478Z,89.10
2022-12-20T13:49:45.863Z,89.20
2022-12-20T13:52:26.149Z,89.20
2022-12-20T13:54:57.941Z,89.30
2022-12-20T13:57:31.778Z,89.30
2022-12-20T14:00:07.477Z,89.20
2022-12-20T14:02:42.799Z,89.30
2022-12-20T14:05:23.385Z,90.00
2022-12-20T14:07:59.125Z,89.20
2022-12-20T14:10:29.206Z,89.90
2022-12-20T14:12:59.213Z,89.10
2022-12-20T14:15:32.730Z,90.00
2022-12-20T14:18:07.837Z,89.10
2022-12-20T14:20:37.975Z,89.00
2022-12-20T14:23:10.409Z,89.10
2022-12-20T14:25:43.622Z,89.00
2022-12-20T14:28:27.077Z,88.90
2022-12-20T14:30:56.521Z,89.30
2022-12-20T14:33:32.508Z,89.30
2022-12-20T14:36:10.452Z,89.10
2022-12-20T14:38:39.953Z,89.30
2022-12-20T14:41:34.983Z,89.10
2022-12-20T14:44:16.673Z,89.20
2022-12-20T14:46:49.918Z,89.40
2022-12-20T14:49:23.085Z,89.10
2022-12-20T14:51:52.838Z,89.10
2022-12-20T14:54:56.765Z,89.20
2022-12-20T14:57:21.132Z,89.30
2022-12-20T15:00:01.422Z,89.60
2022-12-20T15:02:37.391Z,89.40
2022-12-20T15:05:24.449Z,89.40
2022-12-20T15:07:52.775Z,89.60
2022-12-20T15:10:21.002Z,89.60
2022-12-20T15:12:49.236Z,89.60
2022-12-20T15:15:33.494Z,89.50
2022-12-20T15:18:02.089Z,89.60
2022-12-20T15:20:30.355Z,89.10
2022-12-20T15:22:58.557Z,89.40
2022-12-20T15:25:27.026Z,89.60
2022-12-20T15:27:55.418Z,89.20
2022-12-20T15:30:25.412Z,88.90
2022-12-20T15:32:55.919Z,88.50
2022-12-20T15:35:25.660Z,88.20
2022-12-20T15:37:53.933Z,88.00
2022-12-20T15:40:22.200Z,87.80
2022-12-20T15:42:50.462Z,87.80
2022-12-20T15:45:18.911Z,88.00
2022-12-20T15:47:49.043Z,88.00
2022-12-20T15:50:17.444Z,88.10
2022-12-20T15:52:45.746Z,88.10
2022-12-20T15:55:14.007Z,88.20
2022-12-20T15:57:42.358Z,88.20
2022-12-20T16:00:13.502Z,88.30
2022-12-20T16:02:41.910Z,88.50
2022-12-20T16:05:14.678Z,88.80
2022-12-20T16:07:42.991Z,88.80
2022-12-20T16:10:15.449Z,89.50
2022-12-20T16:12:43.889Z,88.90
2022-12-20T16:15:21.772Z,89.20
2022-12-20T16:17:50.108Z,89.50
2022-12-20T16:20:20.460Z,89.70
2022-12-20T16:22:48.759Z,89.70
2022-12-20T16:25:27.015Z,89.80
2022-12-20T16:27:55.540Z,90.10
2022-12-20T16:30:24.276Z,89.40
2022-12-20T16:32:52.991Z,89.40
2022-12-20T16:35:28.990Z,89.60
2022-12-20T16:37:58.660Z,89.70
2022-12-20T16:40:29.463Z,89.80
2022-12-20T16:42:58.855Z,89.90
2022-12-20T16:45:28.749Z,89.80
2022-12-20T16:47:57.783Z,89.80
2022-12-20T16:50:28.845Z,89.70
2022-12-20T16:52:57.120Z,89.70
2022-12-20T16:55:27.137Z,89.60
2022-12-20T16:57:55.644Z,89.40
2022-12-20T17:00:25.457Z,89.10
2022-12-20T17:02:53.933Z,88.90
2022-12-20T17:05:26.029Z,88.50
2022-12-20T17:07:55.943Z,88.40
2022-12-20T17:10:25.140Z,88.60
2022-12-20T17:12:53.594Z,88.70
2022-12-20T17:15:25.200Z,88.70
2022-12-20T17:17:54.464Z,88.60
2022-12-20T17:20:24.855Z,88.60
2022-12-20T17:25:46.117Z,89.40
2022-12-20T17:28:17.218Z,89.60
2022-12-20T17:30:45.498Z,89.80
2022-12-20T17:33:16.432Z,89.80
2022-12-20T17:35:44.722Z,89.70
2022-12-20T17:38:14.417Z,89.80
2022-12-20T17:40:42.671Z,89.80
2022-12-20T17:43:14.072Z,89.80
2022-12-20T17:45:42.515Z,89.90
2022-12-20T17:48:10.794Z,89.80
2022-12-20T17:50:39.271Z,89.70
2022-12-20T17:53:07.688Z,89.80
2022-12-20T17:55:37.248Z,89.70
2022-12-20T17:58:05.438Z,89.80
2022-12-20T18:00:38.898Z,89.90
2022-12-20T18:03:08.051Z,89.80
2022-12-20T18:05:36.468Z,90.20
2022-12-20T18:08:04.835Z,89.90
2022-12-20T18:10:34.190Z,89.80
2022-12-20T18:13:03.807Z,90.00
2022-12-20T18:15:32.113Z,89.80
2022-12-20T18:18:00.365Z,90.00
2022-12-20T18:20:28.651Z,90.00
2022-12-20T18:22:56.906Z,90.00
2022-12-20T18:25:25.273Z,89.80
2022-12-20T18:27:53.596Z,90.00
2022-12-20T18:30:23.284Z,90.00
2022-12-20T18:32:51.566Z,89.90
2022-12-20T18:35:20.319Z,90.00
2022-12-20T18:37:48.526Z,90.00
2022-12-20T18:40:17.154Z,90.00
2022-12-20T18:42:45.326Z,90.00
2022-12-20T18:45:13.633Z,90.00
2022-12-20T18:47:43.305Z,90.00
2022-12-20T18:50:14.439Z,90.00
2022-12-20T18:52:43.281Z,90.00
2022-12-20T18:55:15.738Z,90.00
2022-12-20T18:57:44.094Z,90.00
2022-12-20T19:00:13.620Z,90.00
2022-12-20T19:02:43.900Z,90.00
2022-12-20T19:05:12.443Z,90.00
2022-12-20T19:07:40.737Z,90.00
2022-12-20T19:10:10.096Z,90.00
2022-12-20T19:12:38.444Z,90.00
2022-12-20T19:15:07.995Z,90.10
2022-12-20T19:17:36.303Z,90.00
2022-12-20T19:20:07.311Z,90.00
2022-12-20T19:22:35.779Z,90.00
2022-12-20T19:25:04.086Z,90.10
2022-12-20T19:27:32.319Z,90.10
2022-12-20T19:30:00.586Z,90.00
2022-12-20T19:32:28.812Z,90.00
2022-12-20T19:34:57.019Z,90.00
2022-12-20T19:37:29.311Z,90.10
2022-12-20T19:40:01.986Z,90.20
2022-12-20T19:42:31.763Z,90.40
2022-12-20T19:44:59.980Z,90.00
2022-12-20T19:47:29.237Z,90.00
2022-12-20T19:49:57.606Z,90.10
2022-12-20T19:52:29.991Z,90.00
2022-12-20T19:54:58.224Z,90.00
2022-12-20T19:57:26.461Z,90.10
2022-12-20T19:59:56.497Z,90.00
2022-12-20T20:02:25.062Z,90.10
2022-12-20T20:04:53.358Z,90.10
2022-12-20T20:07:21.625Z,90.00
2022-12-20T20:09:51.101Z,90.00
2022-12-20T20:12:19.342Z,90.00
2022-12-20T20:14:47.618Z,90.00
2022-12-20T20:17:16.070Z,90.00
2022-12-20T20:19:44.427Z,90.00
2022-12-20T20:22:16.453Z,90.10
2022-12-20T20:24:47.523Z,90.10
2022-12-20T20:27:16.996Z,90.10
2022-12-20T20:29:45.190Z,90.10
2022-12-20T20:32:13.324Z,90.10
2022-12-20T20:34:41.448Z,90.00
2022-12-20T20:37:09.636Z,90.00
2022-12-20T20:39:37.935Z,90.00
2022-12-20T20:42:06.427Z,90.10
2022-12-20T20:44:36.067Z,90.00
2022-12-20T20:47:04.443Z,90.00
2022-12-20T20:49:32.732Z,90.00
2022-12-20T20:52:00.912Z,90.00
2022-12-20T20:54:29.418Z,90.00
2022-12-20T20:56:58.819Z,90.00
2022-12-20T20:59:26.997Z,90.00
2022-12-20T21:01:56.765Z,90.00
2022-12-20T21:04:25.088Z,90.00
2022-12-20T21:06:53.341Z,90.00
2022-12-20T21:09:21.560Z,90.00
2022-12-20T21:11:50.101Z,90.00
2022-12-20T21:14:36.209Z,90.00
2022-12-20T21:17:08.314Z,90.00
2022-12-20T21:19:36.612Z,90.00
2022-12-20T21:22:04.847Z,90.00
2022-12-20T21:24:34.328Z,90.00
2022-12-20T21:27:02.679Z,90.00
2022-12-20T21:29:30.986Z,90.00
2022-12-20T21:31:59.332Z,90.00
2022-12-20T21:34:29.024Z,90.00
2022-12-20T21:36:58.296Z,90.00
2022-12-20T21:39:27.017Z,90.00
2022-12-20T21:42:01.542Z,90.00
2022-12-20T21:44:30.317Z,90.00
2022-12-20T21:46:58.588Z,90.00
2022-12-20T21:49:28.290Z,90.00
2022-12-20T21:51:56.908Z,90.00
2022-12-20T21:54:25.405Z,90.00
2022-12-20T21:56:53.700Z,90.00
2022-12-20T21:59:22.022Z,90.00
2022-12-20T22:01:50.526Z,90.00
2022-12-20T22:04:18.973Z,90.00
2022-12-20T22:06:48.612Z,90.00
2022-12-20T22:09:17.654Z,90.00
2022-12-20T22:11:48.161Z,90.30
2022-12-20T22:14:17.092Z,90.30
2022-12-20T22:16:45.493Z,90.00
2022-12-20T22:19:15.527Z,90.00
2022-12-20T22:21:43.908Z,90.00
2022-12-20T22:24:13.582Z,90.00
2022-12-20T22:26:41.978Z,90.00
2022-12-20T22:29:10.960Z,90.00
2022-12-20T22:31:39.596Z,90.00
2022-12-20T22:34:07.967Z,90.00
2022-12-20T22:36:36.977Z,90.00
2022-12-20T22:39:05.895Z,89.90
2022-12-20T22:41:35.848Z,89.90
2022-12-20T22:44:05.062Z,89.80
2022-12-20T22:46:34.230Z,89.90
2022-12-20T22:49:02.675Z,89.90
2022-12-20T22:51:33.586Z,89.90
2022-12-20T22:54:02.484Z,90.00
2022-12-20T22:56:30.747Z,90.00
2022-12-20T22:59:00.330Z,90.00
2022-12-20T23:01:28.810Z,90.00
2022-12-20T23:03:57.740Z,89.90
2022-12-20T23:06:26.102Z,90.00
2022-12-20T23:08:54.470Z,90.00
2022-12-20T23:11:41.881Z,90.00
2022-12-20T23:14:32.501Z,90.00
2022-12-20T23:17:01.313Z,90.00
2022-12-20T23:19:50.756Z,89.90
2022-12-20T23:22:36.689Z,89.90
2022-12-20T23:25:05.781Z,90.00
2022-12-20T23:27:34.323Z,89.90
2022-12-20T23:30:04.270Z,90.00
2022-12-20T23:32:32.774Z,90.00
2022-12-20T23:35:04.398Z,90.00
2022-12-20T23:37:35.128Z,90.30
2022-12-20T23:40:03.717Z,89.90
2022-12-20T23:42:31.995Z,89.90
2022-12-20T23:45:00.303Z,90.00
2022-12-20T23:47:29.878Z,90.00
2022-12-20T23:49:58.104Z,90.00
2022-12-20T23:52:26.364Z,90.00
2022-12-20T23:54:54.753Z,90.00
2022-12-20T23:57:22.976Z,89.80
2022-12-20T23:59:51.201Z,89.90
